createdAt,value
2024-02-18T00:02:17.874Z,9.07
2024-02-18T00:07:22.167Z,7.93
2024-02-18T00:12:25.849Z,8.83
2024-02-18T00:17:30.522Z,9.03
2024-02-18T00:22:33.662Z,8.23
2024-02-18T00:27:36.983Z,9.30
2024-02-18T00:32:41.449Z,9.80
2024-02-18T00:37:44.560Z,10.63
2024-02-18T00:42:47.695Z,9.10
2024-02-18T00:47:52.271Z,10.47
2024-02-18T00:52:55.903Z,10.20
2024-02-18T00:57:59.163Z,9.23
2024-02-18T01:03:03.813Z,9.23
2024-02-18T01:08:07.453Z,8.70
2024-02-18T01:13:10.876Z,9.53
2024-02-18T01:18:17.381Z,9.03
2024-02-18T01:23:20.684Z,9.50
2024-02-18T01:28:25.471Z,10.33
2024-02-18T01:33:30.008Z,9.30
2024-02-18T01:38:33.990Z,9.77
2024-02-18T01:43:37.241Z,9.70
2024-02-18T01:48:41.891Z,9.83
2024-02-18T01:53:45.721Z,10.10
2024-02-18T01:58:49.154Z,11.93
2024-02-18T02:03:56.737Z,10.97
2024-02-18T02:09:00.330Z,11.07
2024-02-18T02:14:04.118Z,8.97
2024-02-18T02:19:08.688Z,11.60
2024-02-18T02:24:11.832Z,13.00
2024-02-18T02:29:17.456Z,12.53
2024-02-18T02:34:20.977Z,12.07
2024-02-18T02:39:24.197Z,12.57
2024-02-18T02:44:28.653Z,13.00
2024-02-18T02:49:31.921Z,12.07
2024-02-18T02:54:36.464Z,10.87
2024-02-18T02:59:41.301Z,11.70
2024-02-18T03:04:44.449Z,12.13
2024-02-18T03:09:47.636Z,11.53
2024-02-18T03:14:52.423Z,12.03
2024-02-18T03:19:55.851Z,12.27
2024-02-18T03:25:01.291Z,12.40
2024-02-18T03:30:07.864Z,11.87
2024-02-18T03:35:11.262Z,11.63
2024-02-18T03:40:15.204Z,10.77
2024-02-18T03:45:19.839Z,10.57
2024-02-18T03:50:22.970Z,13.67
2024-02-18T03:55:28.037Z,11.70
2024-02-18T04:00:32.564Z,12.20
2024-02-18T04:05:35.734Z,12.33
2024-02-18T04:10:38.920Z,11.13
2024-02-18T04:15:43.651Z,11.57
2024-02-18T04:20:47.327Z,12.90
2024-02-18T04:25:50.426Z,11.60
2024-02-18T04:30:54.961Z,11.20
2024-02-18T04:35:58.083Z,11.27
2024-02-18T04:41:01.638Z,11.63
2024-02-18T04:46:06.396Z,11.70
2024-02-18T04:51:10.220Z,10.70
2024-02-18T04:56:13.372Z,11.53
2024-02-18T05:01:18.182Z,12.20
2024-02-18T05:06:21.426Z,13.80
2024-02-18T05:11:24.563Z,14.03
2024-02-18T05:16:29.513Z,14.70
2024-02-18T05:21:32.747Z,14.53
2024-02-18T05:26:35.912Z,13.73
2024-02-18T05:31:40.472Z,12.10
2024-02-18T05:36:44.761Z,12.57
2024-02-18T05:41:47.925Z,13.03
2024-02-18T05:46:52.361Z,12.27
2024-02-18T05:51:56.258Z,12.70
2024-02-18T05:56:59.389Z,13.43
2024-02-18T06:02:04.178Z,12.60
2024-02-18T06:07:07.352Z,12.17
2024-02-18T06:12:10.889Z,13.50
2024-02-18T06:17:15.343Z,11.63
2024-02-18T06:22:18.501Z,12.73
2024-02-18T06:27:21.982Z,13.93
2024-02-18T06:32:26.564Z,12.03
2024-02-18T06:37:29.714Z,14.37
2024-02-18T06:42:32.868Z,11.63
2024-02-18T06:47:37.461Z,13.47
2024-02-18T06:52:40.544Z,13.20
2024-02-18T06:57:46.205Z,12.63
2024-02-18T07:02:50.721Z,12.90
2024-02-18T07:07:54.017Z,13.20
2024-02-18T07:12:57.199Z,12.63
2024-02-18T07:18:01.761Z,14.33
2024-02-18T07:23:05.355Z,13.50
2024-02-18T07:28:08.645Z,14.83
2024-02-18T07:33:13.734Z,11.60
2024-02-18T07:38:16.849Z,12.43
2024-02-18T07:43:20.088Z,13.17
2024-02-18T07:48:24.788Z,12.93
2024-02-18T07:53:28.106Z,15.47
2024-02-18T07:58:31.288Z,12.90
2024-02-18T08:03:35.824Z,13.30
2024-02-18T08:08:38.971Z,12.43
2024-02-18T08:13:42.097Z,12.80
2024-02-18T08:18:46.646Z,13.50
2024-02-18T08:23:49.900Z,13.27
2024-02-18T08:28:54.044Z,12.77
2024-02-18T08:33:58.921Z,12.37
2024-02-18T08:39:02.163Z,12.83
2024-02-18T08:44:05.534Z,12.87
2024-02-18T08:49:10.020Z,12.17
2024-02-18T08:54:13.211Z,12.93
2024-02-18T08:59:16.311Z,14.30
2024-02-18T09:04:21.066Z,14.50
2024-02-18T09:09:24.264Z,15.57
2024-02-18T09:14:27.436Z,13.90
2024-02-18T09:19:32.043Z,12.98
2024-02-18T09:24:35.286Z,12.77
2024-02-18T09:29:39.186Z,13.02
2024-02-18T09:34:43.712Z,12.55
2024-02-18T09:39:46.879Z,12.20
2024-02-18T09:44:50.949Z,11.15
2024-02-18T09:49:55.910Z,11.55
2024-02-18T09:55:00.260Z,11.07
2024-02-18T10:00:03.756Z,11.18
2024-02-18T10:05:10.415Z,10.43
2024-02-18T10:10:13.877Z,10.90
2024-02-18T10:15:17.699Z,9.77
2024-02-18T10:20:22.468Z,10.50
2024-02-18T10:25:25.926Z,10.45
2024-02-18T10:30:29.388Z,10.68
2024-02-18T10:35:34.429Z,9.20
2024-02-18T10:45:46.725Z,9.02
2024-02-18T10:50:51.964Z,9.20
2024-02-18T10:56:05.177Z,8.48
2024-02-18T11:01:13.889Z,8.65
2024-02-18T11:06:19.964Z,8.38
2024-02-18T11:11:23.724Z,6.90
2024-02-18T11:16:28.181Z,6.95
2024-02-18T11:21:33.865Z,6.25
2024-02-18T11:26:37.064Z,6.50
2024-02-18T11:31:40.336Z,5.35
2024-02-18T11:36:44.847Z,5.03
2024-02-18T11:41:48.002Z,5.45
2024-02-18T11:46:51.492Z,4.72
2024-02-18T11:51:56.058Z,4.80
2024-02-18T11:56:59.993Z,3.88
2024-02-18T12:02:03.642Z,3.78
2024-02-18T12:07:09.055Z,4.35
2024-02-18T12:12:12.418Z,4.22
2024-02-18T12:17:15.528Z,3.33
2024-02-18T12:22:24.449Z,4.45
2024-02-18T12:27:27.587Z,3.90
2024-02-18T12:32:30.752Z,4.18
2024-02-18T12:37:36.783Z,4.10
2024-02-18T12:42:50.049Z,3.17
2024-02-18T12:48:03.612Z,3.50
2024-02-18T12:53:08.154Z,3.53
2024-02-18T12:58:11.381Z,3.67
2024-02-18T13:03:19.346Z,4.15
2024-02-18T13:08:25.082Z,3.92
2024-02-18T13:13:29.293Z,3.80
2024-02-18T13:18:32.825Z,3.47
2024-02-18T13:23:41.350Z,4.10
2024-02-18T13:28:44.477Z,4.53
2024-02-18T13:33:47.817Z,3.75
2024-02-18T13:38:52.302Z,3.25
2024-02-18T13:43:55.390Z,3.55
2024-02-18T13:48:58.663Z,3.80
2024-02-18T13:54:03.551Z,3.58
2024-02-18T13:59:07.129Z,4.30
2024-02-18T14:04:10.308Z,4.10
2024-02-18T14:09:14.835Z,3.63
2024-02-18T14:14:18.238Z,4.28
2024-02-18T14:19:22.047Z,3.88
2024-02-18T14:24:26.837Z,3.60
2024-02-18T14:29:30.059Z,4.15
2024-02-18T14:34:34.370Z,3.67
2024-02-18T14:39:38.876Z,4.50
2024-02-18T14:44:42.155Z,3.80
2024-02-18T14:49:48.235Z,4.13
2024-02-18T14:54:54.193Z,4.03
2024-02-18T14:59:57.668Z,5.20
2024-02-18T15:05:00.926Z,5.47
2024-02-18T15:10:06.505Z,5.63
2024-02-18T15:15:10.655Z,5.30
2024-02-18T15:20:13.984Z,5.82
2024-02-18T15:25:18.735Z,5.03
2024-02-18T15:30:21.870Z,5.22
2024-02-18T15:35:25.079Z,6.35
2024-02-18T15:40:29.641Z,4.75
2024-02-18T15:45:33.559Z,6.38
2024-02-18T15:50:36.832Z,6.45
2024-02-18T15:55:49.612Z,7.10
2024-02-18T16:01:01.867Z,8.43
2024-02-18T16:06:06.260Z,10.38
2024-02-18T16:11:12.367Z,7.93
2024-02-18T16:16:17.704Z,11.25
2024-02-18T16:21:21.028Z,9.93
2024-02-18T16:26:25.889Z,12.18
2024-02-18T16:31:28.958Z,14.20
2024-02-18T16:36:32.071Z,13.50
2024-02-18T16:41:39.777Z,13.95
2024-02-18T16:46:43.038Z,12.70
2024-02-18T16:51:46.314Z,12.02
2024-02-18T16:56:51.894Z,10.85
2024-02-18T17:01:55.400Z,10.65
2024-02-18T17:06:58.701Z,11.07
2024-02-18T17:12:03.713Z,11.95
2024-02-18T17:17:07.070Z,9.63
2024-02-18T17:22:10.592Z,11.32
2024-02-18T17:27:15.199Z,10.63
2024-02-18T17:32:18.313Z,15.57
2024-02-18T17:37:21.439Z,14.15
2024-02-18T17:42:25.905Z,12.10
2024-02-18T17:47:29.953Z,11.13
2024-02-18T17:52:33.146Z,9.65
2024-02-18T17:57:39.461Z,9.82
2024-02-18T18:02:42.694Z,9.45
2024-02-18T18:07:45.957Z,9.40
2024-02-18T18:12:51.903Z,9.50
2024-02-18T18:17:55.216Z,9.90
2024-02-18T18:22:58.708Z,11.30
2024-02-18T18:28:03.349Z,11.70
2024-02-18T18:33:06.750Z,10.70
2024-02-18T18:38:09.910Z,13.40
2024-02-18T18:43:14.352Z,14.15
2024-02-18T18:48:17.603Z,13.65
2024-02-18T18:53:23.073Z,12.77
2024-02-18T18:58:27.534Z,11.43
2024-02-18T19:03:30.631Z,11.95
2024-02-18T19:08:33.882Z,12.35
2024-02-18T19:13:42.705Z,11.68
2024-02-18T19:18:47.226Z,12.90
2024-02-18T19:23:50.555Z,13.02
2024-02-18T19:28:54.974Z,12.15
2024-02-18T19:33:58.529Z,14.77
2024-02-18T19:39:05.189Z,13.93
2024-02-18T19:44:09.730Z,13.43
2024-02-18T19:49:13.364Z,13.07
2024-02-18T19:54:17.010Z,23.65
2024-02-18T19:59:23.436Z,21.02
2024-02-18T20:04:26.680Z,16.55
2024-02-18T20:09:33.835Z,16.42
2024-02-18T20:14:42.030Z,15.50
2024-02-18T20:19:45.691Z,14.68
2024-02-18T20:24:50.156Z,13.82
2024-02-18T20:29:54.698Z,14.13
2024-02-18T20:34:58.465Z,13.30
2024-02-18T20:40:10.356Z,15.43
2024-02-18T20:45:15.059Z,15.35
2024-02-18T20:50:18.407Z,14.27
2024-02-18T20:55:23.643Z,13.93
2024-02-18T21:00:28.659Z,12.30
2024-02-18T21:05:32.270Z,9.52
2024-02-18T21:10:35.373Z,8.88
2024-02-18T21:15:40.064Z,7.50
2024-02-18T21:20:43.173Z,7.70
2024-02-18T21:25:46.354Z,7.03
2024-02-18T21:30:50.868Z,6.50
2024-02-18T21:35:54.335Z,6.40
2024-02-18T21:40:57.447Z,5.78
2024-02-18T21:46:02.068Z,5.07
2024-02-18T21:51:06.182Z,6.40
2024-02-18T21:56:09.519Z,5.80
2024-02-18T22:01:14.378Z,6.60
2024-02-18T22:06:17.553Z,5.93
2024-02-18T22:11:20.760Z,5.73
2024-02-18T22:16:25.279Z,5.57
2024-02-18T22:21:28.397Z,5.77
2024-02-18T22:26:38.030Z,5.87
2024-02-18T22:31:44.359Z,5.83
2024-02-18T22:36:47.920Z,5.90
2024-02-18T22:41:51.053Z,6.10
2024-02-18T22:46:55.508Z,5.80
2024-02-18T22:51:58.648Z,5.87
2024-02-18T22:57:01.846Z,5.27
2024-02-18T23:02:06.849Z,5.60
2024-02-18T23:07:09.992Z,5.17
2024-02-18T23:12:13.119Z,5.07
2024-02-18T23:17:17.548Z,5.57
2024-02-18T23:22:20.676Z,4.67
2024-02-18T23:27:23.931Z,5.33
2024-02-18T23:32:28.447Z,5.27
2024-02-18T23:37:31.575Z,5.30
2024-02-18T23:42:34.735Z,5.40
2024-02-18T23:47:39.203Z,4.70
2024-02-18T23:52:42.325Z,4.73
2024-02-18T23:57:46.416Z,4.63
